Time;durP1;ratioP1;P1;durP2;ratioP2;P2;SDS_P1;SDS_P2;PMS_P1;PMS_P2;Temp;Humidity;BMP_temperature;BMP_pressure;BME280_temperature;BME280_humidity;BME280_pressure;Samples;Min_cycle;Max_cycle;Signal;HPM_P1;HPM_P2
2021/10/02 00:52:57;;;;;;;14.02;5.32;;;12.20;99.90;;;;;;20861438;28;20036;-79
2021/10/02 01:03:11;;;;;;;6.57;4.40;;;12.20;99.90;;;;;;20853430;28;20033;-79
2021/10/02 01:13:32;;;;;;;9.23;4.47;;;11.90;99.90;;;;;;20887157;28;20041;-79
2021/10/02 01:23:42;;;;;;;10.63;4.90;;;11.90;99.90;;;;;;20873620;28;20069;-79
2021/10/02 01:34:12;;;;;;;9.45;4.80;;;11.80;99.90;;;;;;20852736;28;20026;-79
2021/10/02 01:54:28;;;;;;;8.75;4.40;;;11.50;99.90;;;;;;20880478;28;20026;-80
2021/10/02 02:04:31;;;;;;;11.20;5.20;;;11.20;99.90;;;;;;20884071;28;20033;-80
2021/10/02 02:14:34;;;;;;;9.02;5.68;;;11.20;99.90;;;;;;20880918;28;20403;-79
2021/10/02 02:24:34;;;;;;;7.65;5.20;;;11.30;99.90;;;;;;20883413;28;20037;-79
2021/10/02 02:34:36;;;;;;;9.27;5.00;;;11.10;99.90;;;;;;20892159;28;20029;-79
2021/10/02 02:44:37;;;;;;;7.37;4.77;;;10.90;99.90;;;;;;20864955;28;20033;-79
2021/10/02 02:54:50;;;;;;;7.72;4.50;;;10.70;99.90;;;;;;20885543;28;20040;-79
2021/10/02 03:04:53;;;;;;;8.77;4.70;;;10.70;99.90;;;;;;20893589;22;20060;-82
2021/10/02 03:14:56;;;;;;;10.05;5.55;;;10.60;99.90;;;;;;20839534;28;20133;-78
2021/10/02 03:24:57;;;;;;;9.40;5.22;;;10.60;99.90;;;;;;20862051;28;20039;-81
2021/10/02 03:34:58;;;;;;;;;;;10.70;99.90;;;;;;20853853;28;20044;-81
2021/10/02 03:44:59;;;;;;;12.32;6.20;;;11.00;99.90;;;;;;20833218;28;20322;-80
2021/10/02 03:55:00;;;;;;;10.60;6.43;;;10.90;99.90;;;;;;20850717;28;20025;-81
2021/10/02 04:05:01;;;;;;;14.93;7.60;;;10.80;99.90;;;;;;20847587;28;20040;-81
2021/10/02 04:15:02;;;;;;;14.77;7.80;;;11.00;99.90;;;;;;20848717;28;20056;-79
2021/10/02 04:25:03;;;;;;;14.67;7.93;;;10.70;99.90;;;;;;20847511;28;20033;-80
2021/10/02 04:35:05;;;;;;;16.80;9.87;;;10.50;99.90;;;;;;20832104;28;20300;-80
2021/10/02 04:45:07;;;;;;;15.73;8.52;;;10.80;99.90;;;;;;20853590;28;20039;-80
2021/10/02 04:55:08;;;;;;;21.40;8.03;;;10.60;99.90;;;;;;20851681;28;20029;-80
2021/10/02 05:05:09;;;;;;;14.77;7.93;;;10.50;99.90;;;;;;20848763;28;20244;-80
2021/10/02 05:15:10;;;;;;;10.47;6.70;;;10.40;99.90;;;;;;20862112;28;20080;-80
2021/10/02 05:25:11;;;;;;;15.50;7.73;;;10.30;99.90;;;;;;20875364;28;20030;-80
2021/10/02 05:35:12;;;;;;;14.50;7.27;;;10.20;99.90;;;;;;20851633;28;20045;-80
2021/10/02 05:45:13;;;;;;;13.10;7.47;;;10.20;99.90;;;;;;20864100;28;20032;-80
2021/10/02 05:55:13;;;;;;;10.50;5.07;;;10.40;99.90;;;;;;20843832;28;20100;-80
2021/10/02 06:05:14;;;;;;;10.43;5.17;;;10.80;99.90;;;;;;20846281;28;20163;-80
2021/10/02 06:15:15;;;;;;;10.47;5.43;;;11.10;99.90;;;;;;20844839;28;20025;-80
2021/10/02 06:25:16;;;;;;;9.60;3.93;;;11.30;99.90;;;;;;20859540;28;20056;-80
2021/10/02 06:35:17;;;;;;;13.87;4.77;;;11.40;99.90;;;;;;20860117;28;20381;-80
2021/10/02 06:45:18;;;;;;;7.23;3.87;;;11.60;99.90;;;;;;20842721;28;20029;-80
2021/10/02 06:55:19;;;;;;;7.63;5.00;;;11.60;99.90;;;;;;20862173;28;20044;-81
2021/10/02 07:05:20;;;;;;;7.00;4.53;;;12.20;99.90;;;;;;20848480;28;20487;-81
2021/10/02 07:15:21;;;;;;;10.48;6.82;;;12.60;99.90;;;;;;20869993;28;20088;-80
2021/10/02 07:25:24;;;;;;;13.20;5.90;;;12.90;99.90;;;;;;20854285;28;20225;-81
2021/10/02 07:35:25;;;;;;;8.00;4.57;;;13.60;99.90;;;;;;20864865;28;20029;-81
2021/10/02 07:45:26;;;;;;;8.63;3.90;;;15.10;99.90;;;;;;20865142;28;20113;-81
2021/10/02 07:55:27;;;;;;;9.73;4.30;;;16.40;99.90;;;;;;20847175;28;20044;-82
2021/10/02 08:05:28;;;;;;;8.90;4.17;;;17.20;99.90;;;;;;20866720;28;20029;-79
2021/10/02 08:15:29;;;;;;;12.70;4.20;;;18.00;99.90;;;;;;20866697;28;20033;-80
2021/10/02 08:25:31;;;;;;;7.97;5.03;;;18.60;99.90;;;;;;20850007;28;20036;-81
2021/10/02 08:35:32;;;;;;;9.73;5.22;;;19.30;99.90;;;;;;20817735;28;20454;-81
2021/10/02 08:45:33;;;;;;;8.93;5.13;;;19.20;99.90;;;;;;20830916;28;20057;-81
2021/10/02 08:55:34;;;;;;;9.97;5.77;;;20.00;99.90;;;;;;20834727;28;20500;-81
2021/10/02 09:05:35;;;;;;;7.80;6.22;;;20.40;99.90;;;;;;20839800;22;20080;-75
2021/10/02 09:15:36;;;;;;;9.18;6.30;;;20.40;99.90;;;;;;20805605;28;20033;-75
2021/10/02 09:25:46;;;;;;;13.20;6.13;;;21.10;99.90;;;;;;20803434;28;20034;-75
2021/10/02 09:35:48;;;;;;;11.20;6.22;;;22.30;99.90;;;;;;20803476;28;20776;-75
2021/10/02 09:45:49;;;;;;;15.23;6.30;;;21.80;99.90;;;;;;20803659;28;20083;-75
2021/10/02 09:55:52;;;;;;;8.85;6.32;;;22.60;99.90;;;;;;20801293;28;20656;-75
2021/10/02 10:05:54;;;;;;;13.80;6.40;;;22.30;99.90;;;;;;20809654;28;20048;-75
2021/10/02 10:15:57;;;;;;;11.85;6.10;;;22.60;99.90;;;;;;20813398;28;20029;-74
2021/10/02 10:26:00;;;;;;;16.33;5.63;;;25.00;99.90;;;;;;20812828;28;20032;-74
2021/10/02 10:36:01;;;;;;;15.27;5.22;;;25.50;99.90;;;;;;20816688;28;20021;-75
2021/10/02 10:46:08;;;;;;;9.40;5.28;;;26.20;99.90;;;;;;20814227;28;20083;-77
2021/10/02 10:56:12;;;;;;;8.30;4.97;;;25.00;99.90;;;;;;20813067;28;20475;-76
2021/10/02 11:06:15;;;;;;;10.50;5.93;;;26.10;99.90;;;;;;20814626;28;20052;-76
2021/10/02 11:17:09;;;;;;;10.23;5.55;;;24.50;99.90;;;;;;20833759;28;20091;-76
2021/10/02 11:27:21;;;;;;;10.45;5.00;;;24.00;99.90;;;;;;20836772;28;20060;-76
2021/10/02 11:37:22;;;;;;;9.07;4.80;;;23.80;99.90;;;;;;20916974;28;20091;-76
2021/10/02 11:47:33;;;;;;;5.70;4.35;;;24.80;99.90;;;;;;20904168;28;20582;-75
2021/10/02 11:57:34;;;;;;;9.17;4.50;;;24.60;99.90;;;;;;20927406;28;20101;-77
2021/10/02 12:07:38;;;;;;;;;;;24.70;99.90;;;;;;20933161;28;20559;-76
2021/10/02 12:17:54;;;;;;;7.88;4.20;;;24.10;99.90;;;;;;20861936;28;19909;-77
2021/10/02 12:27:55;;;;;;;7.10;3.78;;;25.40;99.90;;;;;;20790819;28;20033;-76
2021/10/02 12:37:56;;;;;;;;;;;25.50;99.90;;;;;;20928161;28;20331;-77
2021/10/02 12:48:03;;;;;;;7.05;3.88;;;25.50;99.90;;;;;;20841676;28;19988;-76
2021/10/02 12:58:16;;;;;;;8.57;4.25;;;25.90;99.90;;;;;;20848323;28;20041;-77
2021/10/02 13:08:19;;;;;;;6.70;4.22;;;25.40;99.90;;;;;;20807290;28;20041;-77
2021/10/02 13:18:23;;;;;;;5.90;4.22;;;25.80;99.90;;;;;;20802068;28;20029;-76
2021/10/02 13:28:33;;;;;;;9.80;5.00;;;25.90;99.90;;;;;;20815942;28;20025;-77
2021/10/02 13:38:34;;;;;;;9.67;4.67;;;25.40;99.90;;;;;;20879515;28;20025;-79
2021/10/02 13:48:35;;;;;;;6.57;4.40;;;24.90;99.90;;;;;;20817152;28;20036;-78
2021/10/02 13:58:37;;;;;;;6.60;3.85;;;25.60;99.90;;;;;;20813765;28;20032;-78
2021/10/02 14:08:38;;;;;;;8.07;3.85;;;25.50;99.90;;;;;;20811644;28;20052;-77
2021/10/02 14:18:39;;;;;;;6.80;4.27;;;26.00;99.90;;;;;;20811256;28;20519;-78
2021/10/02 14:28:40;;;;;;;;;;;25.50;99.90;;;;;;20839240;28;20319;-78
2021/10/02 14:38:40;;;;;;;12.73;5.73;;;24.70;99.90;;;;;;20897206;28;20366;-78
2021/10/02 14:48:41;;;;;;;5.60;4.15;;;25.80;99.90;;;;;;20892355;28;20291;-78
2021/10/02 14:58:46;;;;;;;9.85;4.53;;;25.50;99.90;;;;;;20875313;28;20124;-78
2021/10/02 15:08:47;;;;;;;7.47;4.72;;;25.10;99.90;;;;;;20837949;28;20036;-77
2021/10/02 15:18:48;;;;;;;10.30;5.20;;;24.30;99.90;;;;;;20808340;28;20059;-76
2021/10/02 15:29:03;;;;;;;6.57;4.70;;;23.90;99.90;;;;;;20829396;28;20092;-77
2021/10/02 15:39:06;;;;;;;9.35;5.15;;;23.40;99.90;;;;;;20808814;28;20054;-77
2021/10/02 15:49:09;;;;;;;23.73;7.78;;;22.60;99.90;;;;;;20823310;28;20460;-77
2021/10/02 15:59:13;;;;;;;11.02;5.47;;;21.60;99.90;;;;;;20831269;28;20037;-78
2021/10/02 16:09:16;;;;;;;10.30;4.72;;;20.50;99.90;;;;;;20838470;28;20059;-77
2021/10/02 16:19:21;;;;;;;27.65;8.20;;;20.60;99.90;;;;;;20804711;28;20096;-77
2021/10/02 16:29:24;;;;;;;23.30;8.07;;;21.20;99.90;;;;;;20833902;28;20041;-77
2021/10/02 16:39:25;;;;;;;9.20;6.03;;;20.70;99.90;;;;;;20760859;28;20033;-75
2021/10/02 16:49:26;;;;;;;17.93;8.17;;;19.70;99.90;;;;;;20738973;28;20061;-76
2021/10/02 16:59:27;;;;;;;8.02;6.22;;;18.70;99.90;;;;;;20792543;28;20495;-78
2021/10/02 17:09:28;;;;;;;16.40;7.07;;;17.60;99.90;;;;;;20858721;28;20045;-77
2021/10/02 17:19:29;;;;;;;13.40;9.03;;;17.20;99.90;;;;;;20877714;28;20879;-78
2021/10/02 17:29:30;;;;;;;9.87;5.70;;;17.80;99.90;;;;;;20870951;28;20060;-78
2021/10/02 17:39:31;;;;;;;14.50;7.57;;;17.10;99.90;;;;;;20937603;28;20052;-77
2021/10/02 17:49:31;;;;;;;12.10;7.20;;;16.80;99.90;;;;;;20937446;28;20468;-77
2021/10/02 17:59:32;;;;;;;10.43;7.40;;;17.10;99.90;;;;;;20869636;28;20199;-77
2021/10/02 18:09:34;;;;;;;19.57;9.30;;;16.50;99.90;;;;;;20859287;28;20026;-77
2021/10/02 18:19:36;;;;;;;13.85;8.50;;;16.20;99.90;;;;;;20831525;28;20060;-77
2021/10/02 18:29:38;;;;;;;12.05;7.47;;;16.30;99.90;;;;;;20849686;28;20056;-76
2021/10/02 18:39:39;;;;;;;15.60;7.05;;;15.90;99.90;;;;;;20915244;28;20037;-76
2021/10/02 18:49:43;;;;;;;11.37;6.73;;;15.50;99.90;;;;;;20893120;28;20025;-76
2021/10/02 18:59:43;;;;;;;10.00;6.50;;;15.70;99.90;;;;;;20790760;28;20030;-77
2021/10/02 19:09:44;;;;;;;11.53;6.70;;;16.10;99.90;;;;;;20809251;28;20041;-77
2021/10/02 19:19:45;;;;;;;14.57;7.90;;;16.30;99.90;;;;;;20821174;28;20033;-77
2021/10/02 19:29:46;;;;;;;10.83;7.63;;;16.30;99.90;;;;;;20873755;28;20048;-77
2021/10/02 19:39:47;;;;;;;12.50;7.73;;;16.30;99.90;;;;;;20875017;28;20037;-77
2021/10/02 19:49:48;;;;;;;12.20;7.43;;;16.10;99.90;;;;;;20837065;28;20041;-77
2021/10/02 19:59:49;;;;;;;15.30;7.83;;;15.80;99.90;;;;;;20824657;28;20519;-78
2021/10/02 20:09:50;;;;;;;15.60;7.60;;;15.40;99.90;;;;;;20854746;28;20079;-76
2021/10/02 20:19:52;;;;;;;12.73;7.27;;;15.40;99.90;;;;;;20844912;28;20029;-76
2021/10/02 20:29:53;;;;;;;15.48;8.15;;;15.10;99.90;;;;;;20875096;28;20037;-78
2021/10/02 20:39:54;;;;;;;11.97;6.77;;;15.30;99.90;;;;;;20901778;28;20032;-77
2021/10/02 20:49:56;;;;;;;11.63;7.20;;;14.80;99.90;;;;;;20819404;28;20036;-78
2021/10/02 20:59:56;;;;;;;;;;;15.00;99.90;;;;;;20838706;28;20021;-78
2021/10/02 21:10:00;;;;;;;14.57;7.20;;;15.10;99.90;;;;;;20810873;28;19935;-79
2021/10/02 21:20:01;;;;;;;9.80;6.90;;;14.90;99.90;;;;;;20807794;28;20272;-79
2021/10/02 21:30:09;;;;;;;13.40;8.23;;;15.10;99.90;;;;;;20807335;28;20434;-78
2021/10/02 21:40:11;;;;;;;12.52;7.50;;;15.00;99.90;;;;;;20803799;28;20082;-77
2021/10/02 21:50:11;;;;;;;;;;;14.40;99.90;;;;;;20800735;28;20030;-78
2021/10/02 22:00:25;;;;;;;16.58;9.68;;;14.30;99.90;;;;;;20814486;28;19990;-79
2021/10/02 22:10:27;;;;;;;18.38;8.93;;;14.30;99.90;;;;;;20858703;28;20037;-78
2021/10/02 22:20:28;;;;;;;14.00;9.63;;;14.20;99.90;;;;;;20857359;28;21022;-78
2021/10/02 22:30:29;;;;;;;13.87;8.20;;;14.00;99.90;;;;;;20858920;28;20025;-78
2021/10/02 22:40:32;;;;;;;14.03;8.87;;;13.90;99.90;;;;;;20843047;28;20029;-78
2021/10/02 22:50:34;;;;;;;10.15;7.03;;;13.70;99.90;;;;;;20841523;28;20097;-78
2021/10/02 23:00:35;;;;;;;12.32;7.55;;;13.60;99.90;;;;;;20858396;28;20121;-77
2021/10/02 23:10:36;;;;;;;14.33;7.43;;;13.60;99.90;;;;;;20857586;28;20380;-76
2021/10/02 23:20:37;;;;;;;9.53;6.90;;;13.50;99.90;;;;;;20855509;28;20061;-78
2021/10/02 23:30:38;;;;;;;11.53;7.63;;;13.50;99.90;;;;;;20811781;28;20026;-77
2021/10/02 23:40:42;;;;;;;14.75;8.63;;;13.50;99.90;;;;;;20815346;28;20423;-78
2021/10/02 23:50:49;;;;;;;14.57;7.25;;;13.40;99.90;;;;;;20852187;28;20515;-77
